createdAt,value
2023-05-12T00:00:33.255Z,14.67
2023-05-12T00:03:03.754Z,14.64
2023-05-12T00:05:31.690Z,14.62
2023-05-12T00:07:59.629Z,14.59
2023-05-12T00:10:27.889Z,14.54
2023-05-12T00:12:56.486Z,14.49
2023-05-12T00:15:25.779Z,14.45
2023-05-12T00:17:53.762Z,14.39
2023-05-12T00:20:22.030Z,14.25
2023-05-12T00:22:50.094Z,14.33
2023-05-12T00:25:18.004Z,14.30
2023-05-12T00:27:45.851Z,14.25
2023-05-12T00:30:14.268Z,14.21
2023-05-12T00:32:43.586Z,14.18
2023-05-12T00:35:11.581Z,14.15
2023-05-12T00:37:39.447Z,14.14
2023-05-12T00:40:08.789Z,14.16
2023-05-12T00:42:36.668Z,14.19
2023-05-12T00:45:05.111Z,14.22
2023-05-12T00:47:32.985Z,14.24
2023-05-12T00:50:02.273Z,14.27
2023-05-12T00:52:30.186Z,14.31
2023-05-12T00:54:58.233Z,14.32
2023-05-12T00:57:27.867Z,14.34
2023-05-12T00:59:55.923Z,14.32
2023-05-12T01:02:23.962Z,14.33
2023-05-12T01:04:52.230Z,14.32
2023-05-12T01:07:23.086Z,14.34
2023-05-12T01:09:55.438Z,14.30
2023-05-12T01:12:23.447Z,14.30
2023-05-12T01:14:51.380Z,14.29
2023-05-12T01:17:21.404Z,14.29
2023-05-12T01:19:50.476Z,14.23
2023-05-12T01:22:18.542Z,14.07
2023-05-12T01:24:51.646Z,14.07
2023-05-12T01:27:20.910Z,14.01
2023-05-12T01:29:49.121Z,14.01
2023-05-12T01:32:16.983Z,13.99
2023-05-12T01:34:44.878Z,13.98
2023-05-12T01:37:12.814Z,13.96
2023-05-12T01:39:40.755Z,13.98
2023-05-12T01:42:08.781Z,13.96
2023-05-12T01:44:37.995Z,13.95
2023-05-12T01:47:09.848Z,13.94
2023-05-12T01:49:37.814Z,13.92
2023-05-12T01:52:06.457Z,13.93
2023-05-12T01:54:34.369Z,13.90
2023-05-12T01:57:02.282Z,13.87
2023-05-12T01:59:30.109Z,13.83
2023-05-12T02:01:59.337Z,13.77
2023-05-12T02:04:27.222Z,13.77
2023-05-12T02:06:55.080Z,13.78
2023-05-12T02:09:23.054Z,13.76
2023-05-12T02:11:50.955Z,13.76
2023-05-12T02:14:45.267Z,13.67
2023-05-12T02:17:14.911Z,13.72
2023-05-12T02:19:42.786Z,13.73
2023-05-12T02:22:10.663Z,13.73
2023-05-12T02:24:38.539Z,13.72
2023-05-12T02:27:06.866Z,13.73
2023-05-12T02:29:34.753Z,13.75
2023-05-12T02:32:02.726Z,13.75
2023-05-12T02:34:31.997Z,13.77
2023-05-12T02:36:59.866Z,13.78
2023-05-12T02:39:27.722Z,13.77
2023-05-12T02:41:55.602Z,13.77
2023-05-12T02:44:23.499Z,13.79
2023-05-12T02:46:51.353Z,13.82
2023-05-12T02:49:19.211Z,13.82
2023-05-12T02:51:49.369Z,13.86
2023-05-12T02:54:17.466Z,13.89
2023-05-12T02:56:45.367Z,13.90
2023-05-12T02:59:13.284Z,13.93
2023-05-12T03:01:41.175Z,13.91
2023-05-12T03:04:09.059Z,13.89
2023-05-12T03:06:36.908Z,13.86
2023-05-12T03:09:06.158Z,13.88
2023-05-12T03:11:33.989Z,13.92
2023-05-12T03:14:01.883Z,13.95
2023-05-12T03:16:29.739Z,13.99
2023-05-12T03:18:57.648Z,13.98
2023-05-12T03:21:25.647Z,13.96
2023-05-12T03:23:53.533Z,13.96
2023-05-12T03:26:22.810Z,13.95
2023-05-12T03:28:50.681Z,13.96
2023-05-12T03:31:18.624Z,13.98
2023-05-12T03:33:46.511Z,13.99
2023-05-12T03:36:14.375Z,13.79
2023-05-12T03:38:42.299Z,13.94
2023-05-12T03:41:10.220Z,13.92
2023-05-12T03:43:40.434Z,13.86
2023-05-12T03:46:08.345Z,13.86
2023-05-12T03:48:36.227Z,13.84
2023-05-12T03:51:04.155Z,13.82
2023-05-12T03:53:32.041Z,13.81
2023-05-12T03:56:04.763Z,13.79
2023-05-12T03:58:32.617Z,13.82
2023-05-12T04:01:02.457Z,13.83
2023-05-12T04:03:31.151Z,13.81
2023-05-12T04:06:00.179Z,13.80
2023-05-12T04:08:28.050Z,13.80
2023-05-12T04:10:56.148Z,13.82
2023-05-12T04:13:23.972Z,13.84
2023-05-12T04:15:51.847Z,13.83
2023-05-12T04:18:21.145Z,13.80
2023-05-12T04:20:49.031Z,13.79
2023-05-12T04:23:16.877Z,13.78
2023-05-12T04:25:44.789Z,13.76
2023-05-12T04:28:12.685Z,13.77
2023-05-12T04:30:40.604Z,13.77
2023-05-12T04:33:08.583Z,13.80
2023-05-12T04:35:37.928Z,13.73
2023-05-12T04:38:05.760Z,13.67
2023-05-12T04:40:35.050Z,13.64
2023-05-12T04:43:03.178Z,13.60
2023-05-12T04:45:31.091Z,13.60
2023-05-12T04:47:59.033Z,13.56
2023-05-12T04:50:26.904Z,13.57
2023-05-12T04:52:56.153Z,13.57
2023-05-12T04:55:24.494Z,13.56
2023-05-12T04:57:52.328Z,13.52
2023-05-12T05:00:20.570Z,13.48
2023-05-12T05:02:48.645Z,13.53
2023-05-12T05:05:16.727Z,13.55
2023-05-12T05:07:44.680Z,13.61
2023-05-12T05:10:14.133Z,13.66
2023-05-12T05:12:42.021Z,13.74
2023-05-12T05:15:11.668Z,13.78
2023-05-12T05:17:39.671Z,13.79
2023-05-12T05:20:11.602Z,13.81
2023-05-12T05:22:40.913Z,13.85
2023-05-12T05:25:10.150Z,13.89
2023-05-12T05:27:39.727Z,13.95
2023-05-12T05:30:10.117Z,14.02
2023-05-12T05:32:40.392Z,14.07
2023-05-12T05:35:08.997Z,14.12
2023-05-12T05:37:37.458Z,14.18
2023-05-12T05:40:06.244Z,14.23
2023-05-12T05:42:34.092Z,14.29
2023-05-12T05:45:03.445Z,14.36
2023-05-12T05:47:32.231Z,14.41
2023-05-12T05:50:00.240Z,14.46
2023-05-12T05:52:28.130Z,14.51
2023-05-12T05:54:55.981Z,14.54
2023-05-12T05:57:23.982Z,14.58
2023-05-12T05:59:51.830Z,14.60
2023-05-12T06:02:23.259Z,14.65
2023-05-12T06:04:52.430Z,14.72
2023-05-12T06:07:22.091Z,14.83
2023-05-12T06:09:50.172Z,14.93
2023-05-12T06:12:18.077Z,15.02
2023-05-12T06:14:46.045Z,15.13
2023-05-12T06:17:14.057Z,15.23
2023-05-12T06:19:44.147Z,15.30
2023-05-12T06:22:12.012Z,15.42
2023-05-12T06:24:39.878Z,15.50
2023-05-12T06:27:08.036Z,15.60
2023-05-12T06:29:35.939Z,15.70
2023-05-12T06:32:03.844Z,15.80
2023-05-12T06:34:31.716Z,15.89
2023-05-12T06:37:00.952Z,15.96
2023-05-12T06:39:28.807Z,16.03
2023-05-12T06:41:56.660Z,16.12
2023-05-12T06:44:24.592Z,16.20
2023-05-12T06:46:52.445Z,16.31
2023-05-12T06:49:20.459Z,16.41
2023-05-12T06:51:48.351Z,16.50
2023-05-12T06:54:17.610Z,16.61
2023-05-12T06:56:45.529Z,16.75
2023-05-12T06:59:13.464Z,16.87
2023-05-12T07:01:43.117Z,16.99
2023-05-12T07:04:11.215Z,17.11
2023-05-12T07:06:39.368Z,17.23
2023-05-12T07:09:07.271Z,17.28
2023-05-12T07:11:36.538Z,17.38
2023-05-12T07:14:04.492Z,17.48
2023-05-12T07:16:32.570Z,17.56
2023-05-12T07:19:00.585Z,17.65
2023-05-12T07:21:29.635Z,17.75
2023-05-12T07:23:57.692Z,17.85
2023-05-12T07:26:26.879Z,17.91
2023-05-12T07:29:00.775Z,17.92
2023-05-12T07:31:29.466Z,17.90
2023-05-12T07:33:58.272Z,17.86
2023-05-12T07:36:36.492Z,17.82
2023-05-12T07:39:04.672Z,17.75
2023-05-12T07:41:34.497Z,17.76
2023-05-12T07:44:05.158Z,17.81
2023-05-12T07:46:33.191Z,17.91
2023-05-12T07:49:01.798Z,18.06
2023-05-12T07:51:29.854Z,18.15
2023-05-12T07:53:58.274Z,18.13
2023-05-12T07:56:29.324Z,18.09
2023-05-12T07:58:57.308Z,18.01
2023-05-12T08:01:26.745Z,17.95
2023-05-12T08:03:54.769Z,17.93
2023-05-12T08:06:25.272Z,17.89
2023-05-12T08:08:53.582Z,17.93
2023-05-12T08:11:21.948Z,17.95
2023-05-12T08:13:49.820Z,17.98
2023-05-12T08:16:17.802Z,18.05
2023-05-12T08:18:47.101Z,18.14
2023-05-12T08:21:15.105Z,18.28
2023-05-12T08:23:42.951Z,18.44
2023-05-12T08:26:10.814Z,18.59
2023-05-12T08:28:38.682Z,18.65
2023-05-12T08:31:06.964Z,18.72
2023-05-12T08:33:35.611Z,18.84
2023-05-12T08:36:05.534Z,18.95
2023-05-12T08:38:33.426Z,19.11
2023-05-12T08:41:09.668Z,19.21
2023-05-12T08:43:39.862Z,19.32
2023-05-12T08:46:07.753Z,19.38
2023-05-12T08:48:35.847Z,19.40
2023-05-12T08:51:05.523Z,19.47
2023-05-12T08:53:33.452Z,19.50
2023-05-12T08:58:49.795Z,19.65
2023-05-12T09:01:18.121Z,19.75
2023-05-12T09:03:46.429Z,19.87
2023-05-12T09:06:15.817Z,19.96
2023-05-12T09:08:44.047Z,20.10
2023-05-12T09:11:13.683Z,20.01
2023-05-12T09:13:48.165Z,20.10
2023-05-12T09:16:16.180Z,20.09
2023-05-12T09:18:51.558Z,20.05
2023-05-12T09:21:20.840Z,20.02
2023-05-12T09:23:56.327Z,19.97
2023-05-12T09:26:24.377Z,19.90
2023-05-12T09:28:53.880Z,19.95
2023-05-12T09:31:22.605Z,20.02
2023-05-12T09:33:50.868Z,20.11
2023-05-12T09:36:21.250Z,20.20
2023-05-12T09:39:00.039Z,20.30
2023-05-12T09:41:27.959Z,20.34
2023-05-12T09:43:56.204Z,20.49
2023-05-12T09:46:26.242Z,20.61
2023-05-12T09:48:56.853Z,20.89
2023-05-12T09:51:26.221Z,21.08
2023-05-12T09:53:54.436Z,21.16
2023-05-12T09:56:22.967Z,21.17
2023-05-12T09:58:51.343Z,21.21
2023-05-12T10:01:23.368Z,21.29
2023-05-12T10:03:53.300Z,21.33
2023-05-12T10:06:22.515Z,21.39
2023-05-12T10:09:07.669Z,21.44
2023-05-12T10:11:35.611Z,21.48
2023-05-12T10:14:04.184Z,21.53
2023-05-12T10:16:33.047Z,21.63
2023-05-12T10:19:00.986Z,21.73
2023-05-12T10:21:29.680Z,21.79
2023-05-12T10:23:59.034Z,21.85
2023-05-12T10:26:27.415Z,22.04
2023-05-12T10:28:58.535Z,22.23
2023-05-12T10:31:30.266Z,22.44
2023-05-12T10:34:04.648Z,22.58
2023-05-12T10:36:32.648Z,22.36
2023-05-12T10:39:10.048Z,22.65
2023-05-12T10:41:37.937Z,22.71
2023-05-12T10:44:08.796Z,22.78
2023-05-12T10:46:37.406Z,22.90
2023-05-12T10:49:09.952Z,22.88
2023-05-12T10:51:48.452Z,22.87
2023-05-12T10:54:23.619Z,22.89
2023-05-12T10:56:51.941Z,22.98
2023-05-12T10:59:21.661Z,23.06
2023-05-12T11:02:01.305Z,23.25
2023-05-12T11:04:43.519Z,23.44
2023-05-12T11:07:14.878Z,23.56
2023-05-12T11:12:20.221Z,23.88
2023-05-12T11:14:48.728Z,23.99
2023-05-12T11:17:17.250Z,24.12
2023-05-12T11:19:49.686Z,24.21
2023-05-12T11:22:19.231Z,24.38
2023-05-12T11:24:52.754Z,24.16
2023-05-12T11:27:23.025Z,24.05
2023-05-12T11:29:57.745Z,24.00
2023-05-12T11:32:26.152Z,24.24
2023-05-12T11:34:54.203Z,24.55
2023-05-12T11:37:22.692Z,25.01
2023-05-12T11:39:53.152Z,25.45
2023-05-12T11:42:25.752Z,25.83
2023-05-12T11:44:55.524Z,26.30
2023-05-12T11:47:23.969Z,26.65
2023-05-12T11:49:52.564Z,26.96
2023-05-12T11:52:21.428Z,27.26
2023-05-12T11:54:52.057Z,27.37
2023-05-12T11:57:27.171Z,27.39
2023-05-12T11:59:59.123Z,27.53
2023-05-12T12:02:27.432Z,27.81
2023-05-12T12:04:55.408Z,28.02
2023-05-12T12:07:30.144Z,28.27
2023-05-12T12:09:59.444Z,28.44
2023-05-12T12:12:27.389Z,28.52
2023-05-12T12:15:00.041Z,28.64
2023-05-12T12:17:31.520Z,28.62
2023-05-12T12:19:59.846Z,29.07
2023-05-12T12:22:28.137Z,29.23
2023-05-12T12:24:56.265Z,29.27
2023-05-12T12:27:25.726Z,29.40
2023-05-12T12:29:57.042Z,29.54
2023-05-12T12:32:25.112Z,29.64
2023-05-12T12:34:53.538Z,29.80
2023-05-12T12:37:21.590Z,29.84
2023-05-12T12:39:49.573Z,29.90
2023-05-12T12:42:17.591Z,30.13
2023-05-12T12:44:51.724Z,30.27
2023-05-12T12:47:19.970Z,30.47
2023-05-12T12:49:50.961Z,30.67
2023-05-12T12:52:19.158Z,30.63
2023-05-12T12:54:47.191Z,30.73
2023-05-12T12:57:15.401Z,30.80
2023-05-12T12:59:45.911Z,30.93
2023-05-12T13:02:14.184Z,31.04
2023-05-12T13:04:42.242Z,31.19
2023-05-12T13:07:10.784Z,31.38
2023-05-12T13:09:38.741Z,31.48
2023-05-12T13:12:07.472Z,31.52
2023-05-12T13:14:38.080Z,31.55
2023-05-12T13:17:08.190Z,31.49
2023-05-12T13:19:38.051Z,31.46
2023-05-12T13:22:06.415Z,31.60
2023-05-12T13:24:34.771Z,31.70
2023-05-12T13:27:03.615Z,31.88
2023-05-12T13:29:32.071Z,32.18
2023-05-12T13:32:00.697Z,32.37
2023-05-12T13:34:30.109Z,32.64
2023-05-12T13:36:58.218Z,32.84
2023-05-12T13:39:26.509Z,33.11
2023-05-12T13:41:54.720Z,33.19
2023-05-12T13:44:22.932Z,33.33
2023-05-12T13:46:51.178Z,33.42
2023-05-12T13:49:20.250Z,33.58
2023-05-12T13:51:49.767Z,33.72
2023-05-12T13:54:17.781Z,33.85
2023-05-12T13:56:45.820Z,33.82
2023-05-12T13:59:14.119Z,33.68
2023-05-12T14:01:45.055Z,33.40
2023-05-12T14:04:13.292Z,33.15
2023-05-12T14:06:41.759Z,32.91
2023-05-12T14:09:14.830Z,32.60
2023-05-12T14:11:47.671Z,32.22
2023-05-12T14:14:16.250Z,31.98
2023-05-12T14:16:44.718Z,31.95
2023-05-12T14:19:13.587Z,32.21
2023-05-12T14:21:45.498Z,32.21
2023-05-12T14:24:15.570Z,32.11
2023-05-12T14:26:44.385Z,32.09
2023-05-12T14:29:12.309Z,32.27
2023-05-12T14:31:42.150Z,32.59
2023-05-12T14:34:11.824Z,32.50
2023-05-12T14:36:39.876Z,31.99
2023-05-12T14:39:09.023Z,31.36
2023-05-12T14:41:38.703Z,31.00
2023-05-12T14:44:08.991Z,30.96
2023-05-12T14:46:40.067Z,31.08
2023-05-12T14:49:12.597Z,31.36
2023-05-12T14:51:47.493Z,31.70
2023-05-12T14:54:26.823Z,32.11
2023-05-12T14:56:57.007Z,32.34
2023-05-12T14:59:25.058Z,32.62
2023-05-12T15:01:53.371Z,32.83
2023-05-12T15:04:25.806Z,32.97
2023-05-12T15:06:54.007Z,33.30
2023-05-12T15:09:22.753Z,33.42
2023-05-12T15:11:51.728Z,33.87
2023-05-12T15:14:22.228Z,34.19
2023-05-12T15:16:52.547Z,34.47
2023-05-12T15:19:24.496Z,34.62
2023-05-12T15:21:53.011Z,34.83
2023-05-12T15:24:21.246Z,34.56
2023-05-12T15:26:49.424Z,34.17
2023-05-12T15:29:20.045Z,33.87
2023-05-12T15:31:50.802Z,33.86
2023-05-12T15:34:18.748Z,33.89
2023-05-12T15:36:48.672Z,33.77
2023-05-12T15:39:17.311Z,33.67
2023-05-12T15:41:45.616Z,33.68
2023-05-12T15:44:13.559Z,33.69
2023-05-12T15:46:41.496Z,33.99
2023-05-12T15:49:11.166Z,34.30
2023-05-12T15:51:39.108Z,34.36
2023-05-12T15:54:09.327Z,34.41
2023-05-12T15:56:38.871Z,34.42
2023-05-12T15:59:06.857Z,34.43
2023-05-12T16:01:34.856Z,34.39
2023-05-12T16:04:03.173Z,34.39
2023-05-12T16:06:32.486Z,34.28
2023-05-12T16:09:00.757Z,34.28
2023-05-12T16:11:29.817Z,34.26
2023-05-12T16:13:58.222Z,34.35
2023-05-12T16:16:26.475Z,34.47
2023-05-12T16:18:54.564Z,34.69
2023-05-12T16:21:22.541Z,34.77
2023-05-12T16:23:54.556Z,34.83
2023-05-12T16:26:22.793Z,35.00
2023-05-12T16:28:51.960Z,35.36
2023-05-12T16:31:19.920Z,35.70
2023-05-12T16:33:48.065Z,35.58
2023-05-12T16:36:17.665Z,35.05
2023-05-12T16:38:46.050Z,34.01
2023-05-12T16:41:15.678Z,33.13
2023-05-12T16:43:44.190Z,32.42
2023-05-12T16:46:12.731Z,31.77
2023-05-12T16:48:45.067Z,31.12
2023-05-12T16:51:13.460Z,30.43
2023-05-12T16:53:42.102Z,29.51
2023-05-12T16:56:10.435Z,29.32
2023-05-12T16:58:40.605Z,28.82
2023-05-12T17:01:08.772Z,28.44
2023-05-12T17:03:37.292Z,28.35
2023-05-12T17:06:05.547Z,28.16
2023-05-12T17:08:35.782Z,27.87
2023-05-12T17:11:03.763Z,27.74
2023-05-12T17:13:31.659Z,27.66
2023-05-12T17:16:01.213Z,27.56
2023-05-12T17:18:29.230Z,27.44
2023-05-12T17:20:57.323Z,27.39
2023-05-12T17:23:25.197Z,27.29
2023-05-12T17:25:53.428Z,27.21
2023-05-12T17:28:22.089Z,27.24
2023-05-12T17:30:50.263Z,27.19
2023-05-12T17:33:19.548Z,27.05
2023-05-12T17:35:59.860Z,26.97
2023-05-12T17:38:35.692Z,26.85
2023-05-12T17:41:03.579Z,26.74
2023-05-12T17:43:31.657Z,26.77
2023-05-12T17:46:00.549Z,26.96
2023-05-12T17:48:33.062Z,27.18
2023-05-12T17:51:01.064Z,27.34
2023-05-12T17:53:29.009Z,27.50
2023-05-12T17:55:56.889Z,27.72
2023-05-12T17:58:24.756Z,27.98
2023-05-12T18:00:52.760Z,28.10
2023-05-12T18:03:23.803Z,27.99
2023-05-12T18:05:54.192Z,27.75
2023-05-12T18:08:22.198Z,27.49
2023-05-12T18:10:50.198Z,27.40
2023-05-12T18:13:18.109Z,27.62
2023-05-12T18:15:46.083Z,28.13
2023-05-12T18:18:14.619Z,28.89
2023-05-12T18:20:42.854Z,29.63
2023-05-12T18:23:12.266Z,30.22
2023-05-12T18:25:40.377Z,30.47
2023-05-12T18:28:08.568Z,30.14
2023-05-12T18:30:36.540Z,29.39
2023-05-12T18:33:04.916Z,28.62
2023-05-12T18:35:32.991Z,28.00
2023-05-12T18:38:01.232Z,27.42
2023-05-12T18:40:30.955Z,26.96
2023-05-12T18:42:59.640Z,26.35
2023-05-12T18:45:27.840Z,26.22
2023-05-12T18:47:55.842Z,25.82
2023-05-12T18:50:24.609Z,25.48
2023-05-12T18:52:52.820Z,25.19
2023-05-12T18:55:21.007Z,25.00
2023-05-12T18:57:50.879Z,24.78
2023-05-12T19:00:23.430Z,24.64
2023-05-12T19:02:51.409Z,24.48
2023-05-12T19:05:20.260Z,24.31
2023-05-12T19:07:48.403Z,24.15
2023-05-12T19:10:16.346Z,23.99
2023-05-12T19:12:44.195Z,23.85
2023-05-12T19:15:13.484Z,23.71
2023-05-12T19:17:41.435Z,23.61
2023-05-12T19:20:10.332Z,23.47
2023-05-12T19:22:38.729Z,23.42
2023-05-12T19:25:07.183Z,23.36
2023-05-12T19:27:35.110Z,23.28
2023-05-12T19:30:05.077Z,23.28
2023-05-12T19:32:34.582Z,23.23
2023-05-12T19:35:02.569Z,23.20
2023-05-12T19:37:31.026Z,23.15
2023-05-12T19:39:59.294Z,23.09
2023-05-12T19:42:27.700Z,23.03
2023-05-12T19:44:55.638Z,22.92
2023-05-12T19:47:26.423Z,22.87
2023-05-12T19:49:55.737Z,22.77
2023-05-12T19:52:24.558Z,22.65
2023-05-12T19:54:52.486Z,22.58
2023-05-12T19:57:20.968Z,22.53
2023-05-12T19:59:49.612Z,22.49
2023-05-12T20:02:17.980Z,22.47
2023-05-12T20:04:45.938Z,22.42
2023-05-12T20:07:15.231Z,22.35
2023-05-12T20:09:43.206Z,21.97
2023-05-12T20:12:11.371Z,22.19
2023-05-12T20:14:39.439Z,22.13
2023-05-12T20:17:08.121Z,22.04
2023-05-12T20:19:39.437Z,21.96
2023-05-12T20:22:07.454Z,21.88
2023-05-12T20:24:37.123Z,21.81
2023-05-12T20:27:05.169Z,21.73
2023-05-12T20:29:33.061Z,21.68
2023-05-12T20:32:00.941Z,21.60
2023-05-12T20:34:29.205Z,21.50
2023-05-12T20:36:57.529Z,21.42
2023-05-12T20:39:25.385Z,21.30
2023-05-12T20:41:54.648Z,21.20
2023-05-12T20:44:22.926Z,21.13
2023-05-12T20:46:51.172Z,21.05
2023-05-12T20:49:19.099Z,20.96
2023-05-12T20:51:47.049Z,20.89
2023-05-12T20:54:14.912Z,20.81
2023-05-12T20:56:42.779Z,20.78
2023-05-12T20:59:12.105Z,20.73
2023-05-12T21:01:40.215Z,20.67
2023-05-12T21:04:08.312Z,20.64
2023-05-12T21:06:36.660Z,20.59
2023-05-12T21:09:05.604Z,20.54
2023-05-12T21:11:33.662Z,20.50
2023-05-12T21:14:01.557Z,20.51
2023-05-12T21:16:30.952Z,20.47
2023-05-12T21:18:58.910Z,20.41
2023-05-12T21:21:26.943Z,20.34
2023-05-12T21:23:54.813Z,20.27
2023-05-12T21:26:23.021Z,20.19
2023-05-12T21:28:50.945Z,20.10
2023-05-12T21:31:18.860Z,20.05
2023-05-12T21:33:48.506Z,20.01
2023-05-12T21:36:16.421Z,19.97
2023-05-12T21:38:44.282Z,19.91
2023-05-12T21:41:12.122Z,19.86
2023-05-12T21:43:40.093Z,19.82
2023-05-12T21:46:07.990Z,19.76
2023-05-12T21:48:35.914Z,19.68
2023-05-12T21:51:05.681Z,19.45
2023-05-12T21:53:33.610Z,19.56
2023-05-12T21:56:01.466Z,19.50
2023-05-12T21:58:29.351Z,19.43
2023-05-12T22:00:57.563Z,19.38
2023-05-12T22:03:26.164Z,19.03
2023-05-12T22:05:54.080Z,19.30
2023-05-12T22:08:23.459Z,19.24
2023-05-12T22:10:51.352Z,19.16
2023-05-12T22:13:19.493Z,19.11
2023-05-12T22:15:47.471Z,19.04
2023-05-12T22:18:15.410Z,18.97
2023-05-12T22:20:43.535Z,18.90
2023-05-12T22:23:11.508Z,18.86
2023-05-12T22:25:40.845Z,18.84
2023-05-12T22:28:08.738Z,18.77
2023-05-12T22:30:36.575Z,18.70
2023-05-12T22:33:04.597Z,18.63
2023-05-12T22:35:32.785Z,18.58
2023-05-12T22:38:00.710Z,18.52
2023-05-12T22:40:29.190Z,18.43
2023-05-12T22:42:58.620Z,18.41
2023-05-12T22:45:26.573Z,18.36
2023-05-12T22:47:54.530Z,18.27
2023-05-12T22:50:22.547Z,18.19
2023-05-12T22:52:52.796Z,18.12
2023-05-12T22:55:20.878Z,18.05
2023-05-12T22:57:48.746Z,18.03
2023-05-12T23:00:18.825Z,18.00
2023-05-12T23:02:47.089Z,17.99
2023-05-12T23:05:15.069Z,18.00
2023-05-12T23:07:42.978Z,18.02
2023-05-12T23:10:11.249Z,18.05
2023-05-12T23:12:39.172Z,18.07
2023-05-12T23:15:07.788Z,18.08
2023-05-12T23:17:37.124Z,18.11
2023-05-12T23:20:05.892Z,18.14
2023-05-12T23:22:33.761Z,18.15
2023-05-12T23:25:01.980Z,18.18
2023-05-12T23:27:29.934Z,18.00
2023-05-12T23:29:57.830Z,18.17
2023-05-12T23:32:25.951Z,18.14
2023-05-12T23:34:55.361Z,18.11
2023-05-12T23:37:24.522Z,18.09
2023-05-12T23:39:52.489Z,18.08
2023-05-12T23:42:20.370Z,18.04
2023-05-12T23:44:48.263Z,18.01
2023-05-12T23:47:16.189Z,17.95
2023-05-12T23:49:44.040Z,17.92
2023-05-12T23:52:13.297Z,17.91
2023-05-12T23:54:42.149Z,17.90
2023-05-12T23:57:10.030Z,17.88
2023-05-12T23:59:37.894Z,17.85
